Deerwood, MN (56444)

8:08 PM CST on December 07, 2016 (GMT -0600)
Rural Deerwood | | Change Station

Elev 1089 ft 46.44 °N, 93.91 °W | Updated 30 seconds ago

Overcast
Overcast
15.8 °F
Feels Like -1 °F
N
18.1
Wind Variable Wind from NW

Today
High -- | Low -- °F
--% Chance of Precip.
Yesterday
High -- | Low -- °F
Precip. -- in
Pressure 29.97 in
Visibility 7.0 miles
Clouds Scattered Clouds 3200 ft
Mostly Cloudy 5500 ft
Overcast 6500 ft
Windchill -1 °F
Dew Point 12 °F
Humidity 85%
Rainfall 0.00 in
Snow Depth Not available.
7:45 AM 4:28 PM
First Quarter, 58% visible
METAR KAIT 080153Z AUTO 26008G17KT 7SM UP SCT032 BKN055 OVC065 M08/M12 A2997 RMK AO2
Pressure 29.97 in
Visibility 7.0 miles
Clouds Scattered Clouds 3200 ft
Mostly Cloudy 5500 ft
Overcast 6500 ft
Windchill -1 °F
Dew Point 12 °F
Humidity 85%
Rainfall 0.00 in
Snow Depth Not available.
7:45 AM 4:28 PM
First Quarter, 58% visible
METAR KAIT 080153Z AUTO 26008G17KT 7SM UP SCT032 BKN055 OVC065 M08/M12 A2997 RMK AO2

10-Day Weather Forecast

Almanac

Astronomy

Dec. 07, 2016 Rise Set
Actual Time
Civil Twilight
Nautical Twilight
Astronomical Twilight
Moon
Length of Visible Light
Length of Day
Tomorrow will be .
, % of the Moon is Illuminated

Today's Extremes

State Highs State Lows

Community

WunderPhotos

Upload Photos

1,956,259 photos uploaded!

WunderBlog® & News

Nearby

Air Quality

  Air Quality AQ Index Pollutant
Not available.

Snow Depth

Station Depth Elevation

Earthquake Activity

City Distance Mag. Time & Date
Minimum magnitude displayed is 2.5.

Coastal Water Temperatures

Place Temperature

Stations

Nearby Weather Stations

Station Location Temp. Windchill Dew Point Humidity Wind Precip. Elev Updated Type
                   

Watches & Warnings

There are currently no watches in effect.